Time;durP1;ratioP1;P1;durP2;ratioP2;P2;SDS_P1;SDS_P2;PMS_P1;PMS_P2;Temp;Humidity;BMP_temperature;BMP_pressure;BME280_temperature;BME280_humidity;BME280_pressure;Samples;Min_cycle;Max_cycle;Signal;HPM_P1;HPM_P2
2022/10/20 00:00:13;;;;;;;4.43;1.83;;;6.80;99.90;;;;;;5167161;28;20555;-50
2022/10/20 00:02:44;;;;;;;4.77;2.10;;;6.80;99.90;;;;;;5176367;28;20574;-50
2022/10/20 00:05:15;;;;;;;1.70;1.70;;;6.80;99.90;;;;;;5162889;28;20189;-52
2022/10/20 00:07:46;;;;;;;2.43;2.23;;;6.80;99.90;;;;;;5159776;28;20237;-49
2022/10/20 00:10:16;;;;;;;2.80;2.43;;;6.70;99.90;;;;;;5165003;28;20197;-51
2022/10/20 00:12:47;;;;;;;2.13;2.03;;;6.70;99.90;;;;;;5163534;28;20887;-50
2022/10/20 00:15:20;;;;;;;3.33;2.13;;;6.70;99.90;;;;;;5157449;28;20224;-49
2022/10/20 00:17:51;;;;;;;2.80;2.60;;;6.70;99.90;;;;;;5164037;28;20216;-49
2022/10/20 00:20:21;;;;;;;2.13;2.07;;;6.60;99.90;;;;;;5162032;28;20467;-50
2022/10/20 00:22:52;;;;;;;2.30;1.60;;;6.60;99.90;;;;;;5158684;28;20823;-50
2022/10/20 00:25:22;;;;;;;2.03;1.90;;;6.60;99.90;;;;;;5160967;28;20184;-48
2022/10/20 00:27:53;;;;;;;2.57;2.10;;;6.60;99.90;;;;;;5165345;28;20661;-50
2022/10/20 00:30:24;;;;;;;2.23;2.00;;;6.60;99.90;;;;;;5164284;28;20182;-49
2022/10/20 00:32:54;;;;;;;2.73;2.00;;;6.50;99.90;;;;;;5162328;28;20211;-50
2022/10/20 00:35:25;;;;;;;2.50;2.03;;;6.50;99.90;;;;;;5159354;28;20337;-52
2022/10/20 00:37:56;;;;;;;4.40;2.83;;;6.50;99.90;;;;;;5166890;28;20204;-50
2022/10/20 00:40:26;;;;;;;8.40;2.30;;;6.40;99.90;;;;;;5171964;28;20235;-49
2022/10/20 00:42:57;;;;;;;3.50;2.70;;;6.40;99.90;;;;;;5167377;28;20201;-50
2022/10/20 00:45:27;;;;;;;3.73;2.60;;;6.40;99.90;;;;;;5167755;28;20708;-52
2022/10/20 00:48:03;;;;;;;2.30;2.10;;;6.30;99.90;;;;;;5168848;28;20189;-50
2022/10/20 00:50:40;;;;;;;3.27;2.17;;;6.30;99.90;;;;;;5161783;28;20347;-51
2022/10/20 00:53:11;;;;;;;2.10;1.70;;;6.20;99.90;;;;;;5179869;28;20829;-49
2022/10/20 00:55:44;;;;;;;2.47;2.17;;;6.30;99.90;;;;;;5157435;28;20474;-48
2022/10/20 00:58:16;;;;;;;2.50;2.20;;;6.30;99.90;;;;;;5183210;28;20223;-51
2022/10/20 01:00:52;;;;;;;8.03;2.27;;;6.30;99.90;;;;;;5181398;28;20966;-50
2022/10/20 01:03:29;;;;;;;2.00;1.90;;;6.30;99.90;;;;;;5179857;28;21040;-50
2022/10/20 01:05:59;;;;;;;4.97;2.63;;;6.30;99.90;;;;;;5177780;28;20541;-50
2022/10/20 01:08:30;;;;;;;2.83;2.43;;;6.20;99.90;;;;;;5184645;28;20805;-50
2022/10/20 01:11:48;;;;;;;3.53;2.50;;;6.20;99.90;;;;;;5182851;28;20562;-50
2022/10/20 01:14:39;;;;;;;13.67;2.37;;;6.20;99.90;;;;;;5122581;28;20228;-50
2022/10/20 01:17:46;;;;;;;12.90;3.20;;;6.30;99.90;;;;;;5180746;28;20422;-49
2022/10/20 01:20:28;;;;;;;5.70;1.80;;;6.20;99.90;;;;;;5179255;28;20442;-49
2022/10/20 01:23:36;;;;;;;7.40;2.03;;;6.20;99.90;;;;;;5180927;28;20458;-50
2022/10/20 01:26:13;;;;;;;2.07;1.97;;;6.10;99.90;;;;;;5095130;29;20959;-49
2022/10/20 01:29:15;;;;;;;2.00;1.90;;;6.10;99.90;;;;;;5172489;28;20441;-49
2022/10/20 01:32:03;;;;;;;2.03;1.90;;;6.10;99.90;;;;;;5177365;28;20954;-50
2022/10/20 01:34:44;;;;;;;1.60;1.60;;;6.10;99.90;;;;;;5179164;28;20471;-52
2022/10/20 01:37:37;;;;;;;1.40;1.37;;;6.10;99.90;;;;;;5180813;28;20500;-50
2022/10/20 01:40:33;;;;;;;4.37;2.17;;;6.10;99.90;;;;;;5180464;28;20448;-50
2022/10/20 01:43:09;;;;;;;2.90;2.30;;;6.10;99.90;;;;;;5180877;28;20458;-49
2022/10/20 01:45:43;;;;;;;1.80;1.70;;;6.10;99.90;;;;;;5177273;28;20437;-49
2022/10/20 01:48:18;;;;;;;2.73;2.10;;;6.10;99.90;;;;;;5182824;28;20430;-52
2022/10/20 01:50:49;;;;;;;8.33;2.60;;;6.10;99.90;;;;;;5177786;28;20549;-49
2022/10/20 01:53:20;;;;;;;3.00;1.80;;;6.10;99.90;;;;;;5183906;28;20537;-51
2022/10/20 01:55:53;;;;;;;3.23;2.27;;;6.10;99.90;;;;;;5178786;28;20554;-51
2022/10/20 01:58:42;;;;;;;2.40;1.87;;;6.00;99.90;;;;;;5194931;28;20672;-49
2022/10/20 02:01:34;;;;;;;1.87;1.77;;;6.00;99.90;;;;;;5176626;28;20458;-49
2022/10/20 02:04:06;;;;;;;3.80;2.03;;;6.00;99.90;;;;;;5146629;28;20980;-50
2022/10/20 02:07:06;;;;;;;2.30;2.10;;;6.00;99.90;;;;;;5177235;28;20440;-49
2022/10/20 02:09:48;;;;;;;1.40;1.40;;;5.90;99.90;;;;;;5166727;28;20436;-50
2022/10/20 02:12:24;;;;;;;3.00;1.67;;;6.00;99.90;;;;;;5162163;28;20465;-50
2022/10/20 02:14:55;;;;;;;4.10;1.90;;;6.00;99.90;;;;;;5162288;28;20548;-49
2022/10/20 02:17:27;;;;;;;1.93;1.80;;;6.00;99.90;;;;;;5153213;28;20416;-51
2022/10/20 02:19:58;;;;;;;2.40;2.20;;;5.90;99.90;;;;;;5162024;28;20955;-50
2022/10/20 02:22:29;;;;;;;2.03;1.87;;;5.90;99.90;;;;;;5165415;28;20460;-50
2022/10/20 02:25:00;;;;;;;4.27;2.60;;;5.90;99.90;;;;;;5168716;28;20196;-50
2022/10/20 02:27:36;;;;;;;3.53;2.00;;;5.90;99.90;;;;;;5161624;28;20193;-49
2022/10/20 02:30:10;;;;;;;5.63;1.77;;;5.90;99.90;;;;;;5158236;28;20446;-49
2022/10/20 02:32:42;;;;;;;12.97;2.53;;;5.80;99.90;;;;;;5171631;28;20454;-50
2022/10/20 02:35:17;;;;;;;2.60;2.40;;;5.80;99.90;;;;;;5183259;28;20917;-50
2022/10/20 02:37:48;;;;;;;1.77;1.77;;;5.80;99.90;;;;;;5179365;28;20430;-50
2022/10/20 02:40:21;;;;;;;11.23;1.60;;;5.80;99.90;;;;;;5183173;28;20443;-50
2022/10/20 02:42:54;;;;;;;2.93;1.90;;;5.80;99.90;;;;;;5180915;28;20236;-49
2022/10/20 02:45:25;;;;;;;4.00;1.90;;;5.80;99.90;;;;;;5181450;28;20926;-51
2022/10/20 02:47:56;;;;;;;3.90;1.97;;;5.80;99.90;;;;;;5179134;28;20445;-49
2022/10/20 02:50:26;;;;;;;3.60;1.90;;;5.80;99.90;;;;;;5181105;28;20195;-50
2022/10/20 02:52:57;;;;;;;1.83;1.73;;;5.80;99.90;;;;;;5181420;28;20726;-49
2022/10/20 02:55:27;;;;;;;2.10;1.73;;;5.70;99.90;;;;;;5179338;28;20243;-49
2022/10/20 02:57:58;;;;;;;1.73;1.63;;;5.70;99.90;;;;;;5178874;28;20204;-51
2022/10/20 03:00:30;;;;;;;2.17;1.97;;;5.70;99.90;;;;;;5179524;28;20551;-50
2022/10/20 03:03:00;;;;;;;3.30;2.03;;;5.70;99.90;;;;;;5181455;28;20205;-50
2022/10/20 03:05:31;;;;;;;15.40;2.37;;;5.70;99.90;;;;;;5182636;28;20419;-51
2022/10/20 03:08:01;;;;;;;4.23;2.43;;;5.70;99.90;;;;;;5184141;28;20638;-51
2022/10/20 03:10:34;;;;;;;3.30;2.40;;;5.60;99.90;;;;;;5179948;28;20226;-50
2022/10/20 03:13:05;;;;;;;22.57;2.63;;;5.60;99.90;;;;;;5182206;28;20206;-49
2022/10/20 03:15:36;;;;;;;2.23;2.03;;;5.70;99.90;;;;;;5182084;28;20522;-50
2022/10/20 03:18:07;;;;;;;6.53;2.33;;;5.60;99.90;;;;;;5180546;28;20418;-51
2022/10/20 03:20:37;;;;;;;9.70;2.60;;;5.60;99.90;;;;;;5181596;28;20770;-54
2022/10/20 03:23:08;;;;;;;2.20;2.00;;;5.60;99.90;;;;;;5179674;28;20225;-50
2022/10/20 03:25:38;;;;;;;2.20;2.10;;;5.60;99.90;;;;;;5175410;28;20193;-49
2022/10/20 03:28:09;;;;;;;2.67;2.47;;;5.60;99.90;;;;;;5178183;28;20199;-55
2022/10/20 03:30:39;;;;;;;2.60;2.40;;;5.60;99.90;;;;;;5177464;28;20210;-49
2022/10/20 03:33:10;;;;;;;4.67;2.67;;;5.60;99.90;;;;;;5175796;28;20206;-48
2022/10/20 03:35:41;;;;;;;2.57;2.37;;;5.60;99.90;;;;;;5179862;28;20687;-52
2022/10/20 03:38:14;;;;;;;2.93;2.30;;;5.60;99.90;;;;;;5170171;28;20203;-51
2022/10/20 03:40:45;;;;;;;3.03;2.30;;;5.50;99.90;;;;;;5150842;28;20193;-50
2022/10/20 03:43:16;;;;;;;2.20;2.07;;;5.40;99.90;;;;;;5159727;28;20459;-49
2022/10/20 03:45:46;;;;;;;4.37;2.00;;;5.40;99.90;;;;;;5143044;28;20195;-49
2022/10/20 03:48:17;;;;;;;3.33;2.10;;;5.40;99.90;;;;;;5162712;28;20182;-51
2022/10/20 03:50:47;;;;;;;6.13;3.07;;;5.40;99.90;;;;;;5177327;28;20186;-50
2022/10/20 03:53:18;;;;;;;6.17;3.00;;;5.40;99.90;;;;;;5195529;23;20301;-50
2022/10/20 03:55:48;;;;;;;2.40;2.20;;;5.40;99.90;;;;;;5222065;28;20216;-49
2022/10/20 03:58:20;;;;;;;2.30;2.20;;;5.40;99.90;;;;;;5221939;28;20182;-49
2022/10/20 04:00:51;;;;;;;2.70;2.20;;;5.30;99.90;;;;;;5219898;28;20209;-49
2022/10/20 04:03:21;;;;;;;2.73;2.53;;;5.30;99.90;;;;;;5216222;28;20448;-49
2022/10/20 04:05:52;;;;;;;2.20;2.10;;;5.30;99.90;;;;;;5203452;28;20927;-48
2022/10/20 04:08:22;;;;;;;16.67;2.90;;;5.30;99.90;;;;;;5198903;28;20229;-49
2022/10/20 04:10:53;;;;;;;4.70;2.47;;;5.30;99.90;;;;;;5197723;28;20283;-49
2022/10/20 04:13:24;;;;;;;4.20;2.23;;;5.20;99.90;;;;;;5201086;28;20207;-49
2022/10/20 04:15:54;;;;;;;2.50;2.33;;;5.20;99.90;;;;;;5199658;28;20213;-50
2022/10/20 04:18:25;;;;;;;3.57;3.27;;;5.20;99.90;;;;;;5191818;28;20181;-50
2022/10/20 04:20:55;;;;;;;5.20;3.20;;;5.30;99.90;;;;;;5206052;28;20658;-51
2022/10/20 04:23:28;;;;;;;2.23;2.13;;;5.30;99.90;;;;;;5205292;28;20297;-48
2022/10/20 04:25:59;;;;;;;5.73;2.50;;;5.20;99.90;;;;;;5200796;28;20270;-49
2022/10/20 04:28:30;;;;;;;2.93;2.73;;;5.20;99.90;;;;;;5202042;28;20508;-49
2022/10/20 04:31:01;;;;;;;4.00;3.17;;;5.20;99.90;;;;;;5201612;28;20184;-49
2022/10/20 04:33:31;;;;;;;4.80;3.30;;;5.20;99.90;;;;;;5191251;28;20204;-48
2022/10/20 04:36:08;;;;;;;3.10;2.90;;;5.20;99.90;;;;;;5203250;28;20498;-48
2022/10/20 04:38:39;;;;;;;3.10;2.77;;;5.20;99.90;;;;;;5191945;28;20214;-48
2022/10/20 04:41:10;;;;;;;3.20;2.93;;;5.10;99.90;;;;;;5195277;28;20470;-48
2022/10/20 04:43:41;;;;;;;3.77;3.20;;;5.10;99.90;;;;;;5194335;28;20197;-48
2022/10/20 04:46:11;;;;;;;3.40;3.10;;;5.10;99.90;;;;;;5203842;28;20423;-49
2022/10/20 04:48:44;;;;;;;3.73;2.70;;;5.10;99.90;;;;;;5201242;28;20256;-48
2022/10/20 04:51:15;;;;;;;6.80;2.87;;;5.10;99.90;;;;;;5187194;28;20229;-49
2022/10/20 04:53:48;;;;;;;4.63;3.07;;;5.00;99.90;;;;;;5195781;28;20468;-48
2022/10/20 04:56:21;;;;;;;10.03;3.57;;;5.00;99.90;;;;;;5193145;28;20460;-48
2022/10/20 04:58:54;;;;;;;4.43;3.43;;;5.00;99.90;;;;;;5193044;28;20956;-49
2022/10/20 05:01:27;;;;;;;3.13;2.93;;;5.00;99.90;;;;;;5198535;28;20475;-49
2022/10/20 05:03:58;;;;;;;7.50;3.37;;;4.90;99.90;;;;;;5191274;28;20452;-49
2022/10/20 05:06:31;;;;;;;5.83;3.70;;;4.90;99.90;;;;;;5199691;28;20492;-48
2022/10/20 05:09:04;;;;;;;5.63;3.77;;;4.90;99.90;;;;;;5203129;28;20391;-50
2022/10/20 05:11:35;;;;;;;5.10;3.23;;;4.90;99.90;;;;;;5207314;28;20438;-49
2022/10/20 05:14:06;;;;;;;3.87;3.47;;;4.90;99.90;;;;;;5209617;28;20462;-48
2022/10/20 05:16:37;;;;;;;3.77;3.50;;;4.90;99.90;;;;;;5197599;28;20446;-48
2022/10/20 05:19:09;;;;;;;5.20;4.00;;;4.90;99.90;;;;;;5189701;28;20262;-50
2022/10/20 05:21:39;;;;;;;4.93;4.40;;;4.80;99.90;;;;;;5204308;28;20548;-48
2022/10/20 05:24:14;;;;;;;7.77;3.60;;;4.90;99.90;;;;;;5208497;28;20443;-50
2022/10/20 05:26:44;;;;;;;7.60;3.80;;;4.90;99.90;;;;;;5203201;28;20289;-49
2022/10/20 05:29:15;;;;;;;4.00;3.20;;;4.90;99.90;;;;;;5203267;28;20431;-51
2022/10/20 05:31:45;;;;;;;3.90;3.60;;;4.90;99.90;;;;;;5199399;28;20880;-49
2022/10/20 05:34:16;;;;;;;4.10;3.77;;;5.00;99.90;;;;;;5206995;28;20690;-48
2022/10/20 05:36:47;;;;;;;8.53;4.33;;;5.00;99.90;;;;;;5187371;28;20555;-48
2022/10/20 05:39:20;;;;;;;4.60;4.20;;;5.00;99.90;;;;;;5208040;28;20178;-51
2022/10/20 05:41:51;;;;;;;4.37;4.07;;;5.00;99.90;;;;;;5201767;28;20626;-49
2022/10/20 05:44:24;;;;;;;8.87;3.83;;;4.90;99.90;;;;;;5205616;28;20462;-48
2022/10/20 05:46:55;;;;;;;7.30;4.03;;;5.00;99.90;;;;;;5200360;28;20449;-49
2022/10/20 05:49:25;;;;;;;5.07;3.80;;;4.90;99.90;;;;;;5185804;28;20528;-50
2022/10/20 05:51:56;;;;;;;5.87;4.50;;;4.90;99.90;;;;;;5207394;28;20205;-49
2022/10/20 05:54:27;;;;;;;7.00;4.63;;;4.90;99.90;;;;;;5205178;28;20578;-49
2022/10/20 05:56:57;;;;;;;8.20;4.93;;;5.00;99.90;;;;;;5205939;28;20267;-50
2022/10/20 05:59:28;;;;;;;5.57;4.60;;;5.00;99.90;;;;;;5205605;28;20551;-49
2022/10/20 06:02:01;;;;;;;8.17;4.83;;;5.00;99.90;;;;;;5204679;28;20569;-49
2022/10/20 06:04:32;;;;;;;8.17;4.23;;;5.10;99.90;;;;;;5200392;28;20213;-51
2022/10/20 06:07:08;;;;;;;9.43;5.00;;;5.10;99.90;;;;;;5200479;28;20567;-50
2022/10/20 06:09:39;;;;;;;5.33;4.80;;;5.20;99.90;;;;;;5204846;28;20262;-48
2022/10/20 06:12:10;;;;;;;8.03;3.97;;;5.20;99.90;;;;;;5206688;28;20436;-49
2022/10/20 06:14:41;;;;;;;11.83;5.23;;;5.20;99.90;;;;;;5200516;28;20463;-49
2022/10/20 06:17:11;;;;;;;8.57;5.97;;;5.30;99.90;;;;;;5205398;28;20176;-48
2022/10/20 06:19:42;;;;;;;7.10;5.33;;;5.30;99.90;;;;;;5209263;28;20176;-47
2022/10/20 06:22:12;;;;;;;7.43;5.30;;;5.30;99.90;;;;;;5192438;28;20185;-48
2022/10/20 06:24:43;;;;;;;7.50;5.83;;;5.40;99.90;;;;;;5209278;28;20281;-48
2022/10/20 06:27:14;;;;;;;12.20;5.33;;;5.60;99.90;;;;;;5207220;28;20191;-48
2022/10/20 06:29:47;;;;;;;7.20;4.67;;;6.20;99.90;;;;;;5204786;28;20213;-47
2022/10/20 06:32:17;;;;;;;7.97;4.87;;;7.00;99.90;;;;;;5205117;28;20215;-49
2022/10/20 06:34:48;;;;;;;10.10;5.37;;;7.30;99.90;;;;;;5201544;28;20465;-48
2022/10/20 06:37:19;;;;;;;9.60;5.07;;;7.50;99.90;;;;;;5207718;28;20228;-45
2022/10/20 06:39:49;;;;;;;13.70;6.13;;;8.10;99.90;;;;;;5199012;28;20315;-48
2022/10/20 06:42:20;;;;;;;8.97;4.90;;;8.70;99.90;;;;;;5188849;28;20168;-47
2022/10/20 06:44:50;;;;;;;10.20;5.50;;;9.60;99.90;;;;;;5199847;28;20353;-49
2022/10/20 06:47:21;;;;;;;11.60;5.07;;;10.50;99.90;;;;;;5203040;28;20212;-49
2022/10/20 06:49:51;;;;;;;6.80;4.73;;;11.40;99.90;;;;;;5198382;28;20295;-50
2022/10/20 06:52:22;;;;;;;11.10;5.13;;;11.30;99.90;;;;;;5206264;28;20183;-50
2022/10/20 06:54:52;;;;;;;7.63;4.40;;;11.30;99.90;;;;;;5203093;28;20223;-48
2022/10/20 06:57:23;;;;;;;9.07;5.10;;;11.60;99.90;;;;;;5204632;28;20269;-47
2022/10/20 06:59:54;;;;;;;7.63;5.30;;;12.30;99.80;;;;;;5205417;28;20183;-47
2022/10/20 07:02:24;;;;;;;7.70;4.70;;;13.10;95.90;;;;;;5201925;28;20182;-52
2022/10/20 07:04:55;;;;;;;12.63;5.40;;;13.60;91.80;;;;;;5201780;28;20791;-46
2022/10/20 07:07:25;;;;;;;5.73;4.40;;;13.70;89.90;;;;;;5212437;28;20196;-46
2022/10/20 07:09:56;;;;;;;7.83;5.00;;;14.00;84.80;;;;;;5208439;28;20636;-47
2022/10/20 07:12:26;;;;;;;16.00;4.63;;;14.00;82.30;;;;;;5197854;28;20279;-47
2022/10/20 07:14:57;;;;;;;6.23;4.63;;;13.80;83.40;;;;;;5199669;28;20357;-49
2022/10/20 07:17:28;;;;;;;11.10;5.23;;;13.40;81.80;;;;;;5207174;28;20682;-47
2022/10/20 07:19:59;;;;;;;6.43;5.07;;;12.00;88.10;;;;;;5204575;28;20180;-53
2022/10/20 07:22:32;;;;;;;10.50;4.90;;;10.20;96.90;;;;;;5205579;28;20437;-46
2022/10/20 07:25:05;;;;;;;15.53;5.67;;;8.90;99.90;;;;;;5193864;28;20200;-46
2022/10/20 07:27:35;;;;;;;8.50;5.13;;;8.10;99.90;;;;;;5207731;28;20430;-46
2022/10/20 07:30:06;;;;;;;9.70;5.10;;;7.70;99.90;;;;;;5207328;28;20451;-47
2022/10/20 07:32:37;;;;;;;7.53;5.77;;;7.40;99.90;;;;;;5205910;28;20184;-48
2022/10/20 07:35:07;;;;;;;9.10;4.80;;;7.40;99.90;;;;;;5204535;28;20302;-47
2022/10/20 07:37:38;;;;;;;5.57;4.80;;;7.30;99.90;;;;;;5205081;28;20226;-46
2022/10/20 07:40:09;;;;;;;7.20;4.80;;;7.30;99.90;;;;;;5202774;28;20188;-48
2022/10/20 07:42:40;;;;;;;9.40;5.33;;;7.30;99.90;;;;;;5200513;28;20209;-50
2022/10/20 07:45:10;;;;;;;5.63;4.83;;;7.30;99.90;;;;;;5201091;28;20458;-48
2022/10/20 07:47:41;;;;;;;8.67;5.50;;;7.30;99.90;;;;;;5200175;28;20249;-46
2022/10/20 07:50:12;;;;;;;6.40;4.73;;;7.40;99.90;;;;;;5201106;28;20188;-47
2022/10/20 07:52:43;;;;;;;15.07;5.60;;;7.50;99.90;;;;;;5205302;28;20805;-46
2022/10/20 07:55:13;;;;;;;9.43;4.80;;;7.60;99.90;;;;;;5203518;28;20243;-47
2022/10/20 07:57:44;;;;;;;5.43;4.43;;;7.70;99.90;;;;;;5205002;28;20187;-48
2022/10/20 08:00:15;;;;;;;11.63;5.53;;;7.70;99.90;;;;;;5207000;28;20258;-47
2022/10/20 08:02:48;;;;;;;17.60;5.30;;;7.80;99.90;;;;;;5205424;28;20261;-46
2022/10/20 08:05:18;;;;;;;7.77;4.93;;;7.80;99.90;;;;;;5203898;28;20179;-47
2022/10/20 08:07:49;;;;;;;8.93;4.60;;;8.00;99.90;;;;;;5205062;28;20797;-46
2022/10/20 08:10:20;;;;;;;14.43;5.27;;;8.00;99.90;;;;;;5204384;28;20183;-45
2022/10/20 08:12:51;;;;;;;12.50;4.87;;;8.10;99.90;;;;;;5206373;28;20448;-47
2022/10/20 08:15:21;;;;;;;7.10;4.57;;;8.10;99.90;;;;;;5208474;28;20203;-47
2022/10/20 08:17:52;;;;;;;7.43;4.97;;;8.20;99.90;;;;;;5208518;28;20274;-49
2022/10/20 08:20:22;;;;;;;11.50;4.83;;;8.30;99.90;;;;;;5205911;28;20180;-47
2022/10/20 08:22:53;;;;;;;6.97;5.10;;;8.40;99.90;;;;;;5207235;28;20204;-46
2022/10/20 08:25:24;;;;;;;8.47;4.77;;;8.40;99.90;;;;;;5207698;28;20620;-47
2022/10/20 08:27:54;;;;;;;9.80;5.53;;;8.50;99.90;;;;;;5207951;28;20180;-50
2022/10/20 08:30:25;;;;;;;8.43;5.00;;;8.50;99.90;;;;;;5207111;28;20434;-48
2022/10/20 08:32:56;;;;;;;11.60;4.90;;;8.70;99.90;;;;;;5206884;28;20208;-48
2022/10/20 08:35:27;;;;;;;6.10;4.80;;;8.80;99.90;;;;;;5211419;28;20211;-45
2022/10/20 08:37:57;;;;;;;6.20;4.27;;;8.90;99.90;;;;;;5209158;28;20176;-47
2022/10/20 08:40:30;;;;;;;9.47;4.80;;;9.00;99.90;;;;;;5207176;28;20438;-46
2022/10/20 08:43:00;;;;;;;12.23;4.80;;;9.10;99.90;;;;;;5210821;28;20203;-47
2022/10/20 08:45:32;;;;;;;13.07;4.40;;;9.20;99.90;;;;;;5211554;28;20428;-50
2022/10/20 08:48:03;;;;;;;6.70;4.57;;;9.30;99.90;;;;;;5204611;28;20223;-48
2022/10/20 08:50:34;;;;;;;14.97;5.27;;;9.50;99.90;;;;;;5209517;28;20452;-48
2022/10/20 08:53:04;;;;;;;8.60;4.37;;;9.60;99.90;;;;;;5208501;28;20207;-48
2022/10/20 08:55:35;;;;;;;6.10;4.07;;;9.70;99.90;;;;;;5207210;28;20220;-46
2022/10/20 08:58:15;;;;;;;6.53;3.77;;;9.80;99.90;;;;;;5205448;28;20303;-48
2022/10/20 09:00:47;;;;;;;4.27;3.87;;;10.00;99.90;;;;;;5209076;28;20589;-47
2022/10/20 09:03:26;;;;;;;4.27;3.93;;;10.00;99.90;;;;;;5208523;28;20548;-48
2022/10/20 09:06:09;;;;;;;8.07;4.07;;;10.10;99.90;;;;;;5208602;28;20534;-47
2022/10/20 09:08:41;;;;;;;7.97;4.27;;;10.10;99.90;;;;;;5208829;28;20437;-48
2022/10/20 09:11:24;;;;;;;7.57;4.10;;;10.20;99.90;;;;;;5201969;28;20464;-47
2022/10/20 09:13:55;;;;;;;7.33;3.90;;;10.30;99.90;;;;;;5208878;28;20466;-47
2022/10/20 09:16:37;;;;;;;5.80;4.17;;;10.30;99.90;;;;;;5207364;28;20521;-47
2022/10/20 09:19:19;;;;;;;7.63;4.17;;;10.40;99.90;;;;;;5209003;28;20175;-47
2022/10/20 09:21:56;;;;;;;4.87;3.87;;;10.40;99.90;;;;;;5198988;28;20430;-46
2022/10/20 09:24:28;;;;;;;10.80;3.47;;;10.40;99.90;;;;;;5204300;28;20442;-49
2022/10/20 09:27:20;;;;;;;6.50;3.60;;;10.50;99.90;;;;;;5209176;28;20456;-45
2022/10/20 09:29:50;;;;;;;7.53;4.30;;;10.70;99.90;;;;;;5197230;28;20450;-47
2022/10/20 09:32:33;;;;;;;5.90;4.13;;;10.70;99.90;;;;;;5209226;28;20781;-49
2022/10/20 09:35:22;;;;;;;5.10;4.37;;;10.80;99.90;;;;;;5206445;28;20203;-50
2022/10/20 09:38:23;;;;;;;4.17;3.73;;;10.70;99.90;;;;;;5203181;28;20430;-49
2022/10/20 09:41:02;;;;;;;4.20;3.80;;;10.70;99.90;;;;;;5202672;28;20438;-49
2022/10/20 09:43:33;;;;;;;6.57;4.30;;;10.70;99.90;;;;;;5203876;28;20789;-49
2022/10/20 09:46:08;;;;;;;6.50;4.33;;;10.70;99.90;;;;;;5200427;28;20442;-50
2022/10/20 09:48:49;;;;;;;14.97;4.93;;;10.70;99.90;;;;;;5207666;28;20619;-47
2022/10/20 09:51:27;;;;;;;8.30;3.93;;;10.70;99.90;;;;;;5203785;28;20438;-46
2022/10/20 09:54:03;;;;;;;4.40;4.00;;;10.80;99.90;;;;;;5227866;23;20574;-53
2022/10/20 09:56:41;;;;;;;4.43;4.10;;;11.00;99.90;;;;;;5215190;28;20846;-53
2022/10/20 09:59:27;;;;;;;4.20;3.77;;;10.80;99.90;;;;;;5220879;28;20516;-52
2022/10/20 10:02:31;;;;;;;6.60;4.10;;;10.80;99.90;;;;;;5223764;28;20853;-52
2022/10/20 10:05:18;;;;;;;7.13;3.83;;;10.90;99.90;;;;;;5207045;28;20969;-53
2022/10/20 10:07:58;;;;;;;4.97;4.00;;;11.00;99.90;;;;;;5203207;28;20432;-51
2022/10/20 10:10:30;;;;;;;4.77;4.37;;;11.10;99.90;;;;;;5202813;28;20519;-53
2022/10/20 10:13:04;;;;;;;5.60;4.10;;;11.10;99.90;;;;;;5206637;28;20790;-52
2022/10/20 10:15:36;;;;;;;3.83;3.43;;;11.30;99.90;;;;;;5206357;28;20466;-53
2022/10/20 10:18:20;;;;;;;5.03;3.27;;;11.40;99.90;;;;;;5206464;28;20434;-51
2022/10/20 10:21:04;;;;;;;5.20;2.90;;;11.50;99.90;;;;;;5204586;28;20490;-52
2022/10/20 10:23:50;;;;;;;6.40;3.70;;;11.60;99.90;;;;;;5200160;28;20451;-52
2022/10/20 10:26:54;;;;;;;6.50;3.83;;;11.60;99.90;;;;;;5202643;28;20423;-52
2022/10/20 10:29:35;;;;;;;6.00;3.73;;;11.70;99.90;;;;;;5163753;28;20450;-53
2022/10/20 10:32:22;;;;;;;10.60;3.47;;;11.80;99.90;;;;;;5205658;28;20450;-52
2022/10/20 10:35:14;;;;;;;3.73;3.33;;;11.80;99.90;;;;;;5213318;28;20462;-53
2022/10/20 10:37:45;;;;;;;3.40;3.20;;;11.90;99.90;;;;;;5198937;28;20439;-52
2022/10/20 10:40:19;;;;;;;5.40;4.30;;;12.00;99.90;;;;;;5206744;28;20906;-51
2022/10/20 10:43:15;;;;;;;7.40;3.17;;;12.00;99.90;;;;;;5205877;28;20523;-52
2022/10/20 10:46:01;;;;;;;3.63;3.33;;;12.10;99.90;;;;;;5206681;28;20782;-52
2022/10/20 10:48:49;;;;;;;4.53;2.57;;;12.20;99.90;;;;;;5205413;28;20937;-52
2022/10/20 10:51:53;;;;;;;3.10;2.00;;;12.20;99.90;;;;;;5201079;28;20522;-52
2022/10/20 10:54:23;;;;;;;11.20;2.80;;;12.20;99.90;;;;;;5186499;28;20500;-52
2022/10/20 10:56:59;;;;;;;2.70;2.50;;;12.30;99.90;;;;;;5199391;28;20561;-53
2022/10/20 10:59:34;;;;;;;3.60;2.53;;;12.30;99.90;;;;;;5205736;28;20179;-54
2022/10/20 11:02:36;;;;;;;2.53;2.43;;;12.30;99.90;;;;;;5200914;28;20916;-51
2022/10/20 11:05:28;;;;;;;6.53;2.80;;;12.40;99.90;;;;;;5205970;28;20456;-52
2022/10/20 11:08:27;;;;;;;4.73;2.57;;;12.50;99.90;;;;;;5203155;28;20988;-53
2022/10/20 11:11:03;;;;;;;2.50;2.30;;;12.50;99.90;;;;;;5132481;28;21057;-53
2022/10/20 11:13:34;;;;;;;2.27;2.10;;;12.60;99.90;;;;;;5203871;28;20742;-52
2022/10/20 11:16:26;;;;;;;6.00;3.27;;;12.70;99.90;;;;;;5202080;28;20469;-52
2022/10/20 11:19:30;;;;;;;2.57;2.37;;;12.70;99.90;;;;;;5205715;28;20179;-51
2022/10/20 11:22:19;;;;;;;3.80;2.97;;;12.70;99.90;;;;;;5197509;28;20414;-52
2022/10/20 11:24:54;;;;;;;3.00;2.80;;;12.70;99.90;;;;;;5205458;28;20460;-52
2022/10/20 11:27:29;;;;;;;3.07;2.60;;;12.80;99.90;;;;;;5204030;28;20772;-53
2022/10/20 11:30:20;;;;;;;4.37;2.97;;;12.80;99.90;;;;;;5201494;28;20528;-52
2022/10/20 11:33:15;;;;;;;2.57;2.37;;;12.90;99.90;;;;;;5199132;28;20973;-52
2022/10/20 11:36:14;;;;;;;5.53;2.70;;;13.00;99.90;;;;;;5204073;28;20536;-53
2022/10/20 11:38:52;;;;;;;2.17;1.97;;;13.00;99.90;;;;;;5197170;28;20545;-53
2022/10/20 11:41:48;;;;;;;3.93;2.20;;;13.00;99.90;;;;;;5198366;28;20786;-53
2022/10/20 11:44:29;;;;;;;1.77;1.67;;;13.10;99.90;;;;;;5203584;28;20612;-53
2022/10/20 11:47:05;;;;;;;3.23;2.17;;;13.20;99.90;;;;;;5197593;28;20457;-53
2022/10/20 11:49:39;;;;;;;3.87;2.20;;;13.20;99.90;;;;;;5204986;28;20905;-54
2022/10/20 11:52:44;;;;;;;1.67;1.57;;;13.20;99.60;;;;;;5205090;28;20774;-53
2022/10/20 11:55:27;;;;;;;1.50;1.50;;;13.30;98.60;;;;;;5204444;28;20465;-52
2022/10/20 11:58:11;;;;;;;4.50;2.70;;;13.30;97.90;;;;;;5216834;28;20445;-51
2022/10/20 12:01:22;;;;;;;1.50;1.17;;;13.30;97.80;;;;;;5198488;28;20504;-52
2022/10/20 12:04:25;;;;;;;1.90;1.80;;;13.30;96.90;;;;;;5191646;28;20454;-52
2022/10/20 12:07:18;;;;;;;2.03;1.93;;;13.30;96.20;;;;;;5207282;28;20432;-52
2022/10/20 12:09:49;;;;;;;2.87;1.90;;;13.30;96.10;;;;;;5209122;28;20426;-54
2022/10/20 12:12:45;;;;;;;1.97;1.87;;;13.30;95.90;;;;;;5208115;28;20936;-53
2022/10/20 12:15:24;;;;;;;2.70;2.03;;;13.30;95.00;;;;;;5202399;28;20264;-53
2022/10/20 12:18:06;;;;;;;2.00;1.57;;;13.20;95.00;;;;;;5219004;28;20439;-53
2022/10/20 12:20:36;;;;;;;2.30;2.10;;;13.30;95.00;;;;;;5203154;28;20437;-53
2022/10/20 12:23:41;;;;;;;2.27;1.63;;;13.30;95.30;;;;;;5205236;28;20821;-52
2022/10/20 12:26:31;;;;;;;4.23;1.50;;;13.30;95.00;;;;;;5202626;28;20268;-52
2022/10/20 12:29:31;;;;;;;3.13;2.03;;;13.40;95.20;;;;;;5205799;28;20500;-52
2022/10/20 12:32:20;;;;;;;2.10;1.60;;;13.50;94.70;;;;;;5203038;28;20446;-52
2022/10/20 12:34:57;;;;;;;2.17;2.00;;;13.50;94.00;;;;;;5205683;28;20469;-52
2022/10/20 12:37:35;;;;;;;2.13;1.93;;;13.50;93.90;;;;;;5209443;28;20988;-52
2022/10/20 12:40:05;;;;;;;2.00;1.90;;;13.40;93.10;;;;;;5206785;28;20966;-52
2022/10/20 12:42:39;;;;;;;4.17;1.83;;;13.40;93.60;;;;;;5207673;28;20587;-52
2022/10/20 12:45:18;;;;;;;2.30;2.10;;;13.40;93.70;;;;;;5202138;28;20268;-52
2022/10/20 12:47:54;;;;;;;3.87;2.33;;;13.50;93.30;;;;;;5204621;28;20431;-53
2022/10/20 12:50:41;;;;;;;3.90;2.00;;;13.60;92.90;;;;;;5207382;28;20426;-52
2022/10/20 12:53:17;;;;;;;2.67;2.47;;;13.70;92.50;;;;;;5203643;28;20462;-52
2022/10/20 12:56:09;;;;;;;1.67;1.67;;;13.70;92.40;;;;;;5206967;28;20489;-56
2022/10/20 12:59:17;;;;;;;2.23;1.90;;;13.80;91.60;;;;;;5206784;28;20510;-53
2022/10/20 13:02:10;;;;;;;3.90;2.20;;;13.80;91.60;;;;;;5205945;28;20450;-53
2022/10/20 13:04:56;;;;;;;2.60;2.10;;;13.90;89.50;;;;;;5202567;28;20442;-52
2022/10/20 13:07:45;;;;;;;3.30;2.13;;;13.90;88.00;;;;;;5213925;28;20478;-53
2022/10/20 13:10:34;;;;;;;1.80;1.70;;;14.00;86.20;;;;;;5206752;28;20433;-54
2022/10/20 13:13:04;;;;;;;2.30;1.90;;;13.90;85.80;;;;;;5202534;28;20860;-52
2022/10/20 13:15:37;;;;;;;2.03;1.93;;;14.00;84.20;;;;;;5205768;28;20462;-53
2022/10/20 13:18:18;;;;;;;2.00;1.90;;;13.90;83.00;;;;;;5222171;28;20628;-52
2022/10/20 13:20:58;;;;;;;1.80;1.70;;;13.80;83.00;;;;;;5203205;28;20572;-51
2022/10/20 13:23:40;;;;;;;3.93;2.00;;;13.80;82.40;;;;;;5205739;28;20497;-53
2022/10/20 13:26:45;;;;;;;1.87;1.80;;;13.80;82.60;;;;;;5198140;28;20950;-53
2022/10/20 13:29:33;;;;;;;2.10;1.90;;;13.90;82.70;;;;;;5191131;28;20480;-53
2022/10/20 13:32:36;;;;;;;2.13;1.87;;;14.10;83.20;;;;;;5201193;28;20942;-51
2022/10/20 13:35:17;;;;;;;2.47;2.27;;;14.20;81.60;;;;;;5204013;28;20481;-52
2022/10/20 13:37:59;;;;;;;2.53;2.33;;;14.30;81.20;;;;;;5207605;28;20430;-54
2022/10/20 13:40:44;;;;;;;3.23;2.30;;;14.30;80.80;;;;;;5203316;28;20491;-51